LFRV

Details ICAO LFRV (VNE)
Name Vannes Meucon
Region France
Timezone Europe/Paris (UTC+1.0)
Plans Departing 12
Arriving 25
Stats Elevation 439 ft / 134 m (AMSL)
Location 47.723264° -2.718513°
Runways 1
Magnetic Variation 0.923° W
Sunrise 2017-12-11 07:50:56 UTC / 2017-12-11 08:50:56 Local
Sunset 2017-12-11 16:20:14 UTC / 2017-12-11 17:20:14 Local
Advertisement - Login to hide

Runways

ID Width Length Bearing (true) Bearing (mag) Surface Threshold Offset Overrun Length
04 148 ft / 45 m 5,006 ft / 1,526 m 39.13° 40.05° Asphalt 0 ft / 0 m 0 ft / 0 m
22 148 ft / 45 m 5,006 ft / 1,526 m 219.14° 220.06° Asphalt 0 ft / 0 m 0 ft / 0 m

Approach Navaids

Runway Type Ident Frequency Range Bearing (true) Bearing (mag) Slope Elevation
22 Localiser VNS 110.70 MHz 18 nm / 33 km 219.13° 220.06° - 432 ft / 132 m (AMSL)

Map

Weather


0- 5 10 15 20 25 30 35+ Temperature / ° C

Clouds and Precipitation
Forecast for 2017-12-11 12:00 UTC. Updated 17 minutes ago

Ground ~20,000 ft ~40,000 ft Winds

METAR

LFRV 111130Z AUTO 33013KT 290V360 9999 OVC017 06/04 Q0981

TAF

Not found

Frequencies

Unicom 122.60 MHz VANNES MULT
Tower 122.60 MHz VANNES TWR
Warning: Do not use this data for real-world aviation or navigation. No guarantee of current accuracy is given.